createdAt,value
2023-05-25T00:01:24.581Z,12.81
2023-05-25T00:03:52.924Z,12.90
2023-05-25T00:06:20.206Z,12.61
2023-05-25T00:08:48.755Z,12.40
2023-05-25T00:11:19.588Z,12.38
2023-05-25T00:13:46.615Z,12.54
2023-05-25T00:16:13.668Z,12.61
2023-05-25T00:18:40.718Z,12.50
2023-05-25T00:21:07.819Z,12.55
2023-05-25T00:23:34.936Z,12.58
2023-05-25T00:26:03.576Z,12.70
2023-05-25T00:28:30.622Z,12.88
2023-05-25T00:30:57.703Z,12.86
2023-05-25T00:33:25.097Z,12.77
2023-05-25T00:35:54.260Z,12.81
2023-05-25T00:38:21.815Z,13.02
2023-05-25T00:40:48.976Z,13.13
2023-05-25T00:43:16.208Z,13.02
2023-05-25T00:45:43.470Z,12.71
2023-05-25T00:48:11.338Z,12.59
2023-05-25T00:50:43.148Z,12.62
2023-05-25T00:53:11.662Z,12.60
2023-05-25T00:55:49.907Z,12.70
2023-05-25T00:58:22.344Z,12.71
2023-05-25T01:00:53.629Z,12.73
2023-05-25T01:03:27.979Z,12.82
2023-05-25T01:05:57.615Z,12.99
2023-05-25T01:08:25.857Z,12.98
2023-05-25T01:10:54.255Z,12.96
2023-05-25T01:13:21.623Z,12.96
2023-05-25T01:15:49.999Z,12.93
2023-05-25T01:18:18.316Z,12.92
2023-05-25T01:21:00.276Z,12.83
2023-05-25T01:23:32.952Z,12.60
2023-05-25T01:26:03.682Z,12.52
2023-05-25T01:28:46.968Z,12.54
2023-05-25T01:31:16.308Z,12.59
2023-05-25T01:33:44.897Z,12.58
2023-05-25T01:36:12.058Z,12.47
2023-05-25T01:38:39.297Z,12.33
2023-05-25T01:41:06.342Z,12.46
2023-05-25T01:43:33.336Z,12.65
2023-05-25T01:46:28.295Z,12.78
2023-05-25T01:49:08.779Z,12.94
2023-05-25T01:51:41.637Z,12.96
2023-05-25T01:54:25.543Z,12.90
2023-05-25T01:56:55.137Z,12.97
2023-05-25T01:59:24.776Z,12.92
2023-05-25T02:01:53.778Z,13.04
2023-05-25T02:04:22.389Z,12.89
2023-05-25T02:06:52.054Z,12.82
2023-05-25T02:09:20.742Z,12.72
2023-05-25T02:11:47.815Z,12.77
2023-05-25T02:14:16.169Z,12.61
2023-05-25T02:16:46.125Z,12.51
2023-05-25T02:19:15.120Z,12.59
2023-05-25T02:21:42.871Z,12.60
2023-05-25T02:24:10.441Z,12.55
2023-05-25T02:26:39.134Z,12.52
2023-05-25T02:29:06.668Z,12.56
2023-05-25T02:31:33.846Z,12.60
2023-05-25T02:34:01.899Z,12.63
2023-05-25T02:36:29.009Z,12.72
2023-05-25T02:38:56.046Z,12.57
2023-05-25T02:41:24.459Z,12.51
2023-05-25T02:43:51.649Z,12.54
2023-05-25T02:46:18.979Z,12.76
2023-05-25T02:48:47.317Z,12.86
2023-05-25T02:51:14.667Z,12.78
2023-05-25T02:53:41.955Z,12.78
2023-05-25T02:56:10.498Z,12.78
2023-05-25T02:58:38.867Z,12.86
2023-05-25T03:01:18.582Z,12.97
2023-05-25T03:03:52.713Z,12.81
2023-05-25T03:06:23.152Z,12.57
2023-05-25T03:08:54.688Z,12.64
2023-05-25T03:11:22.689Z,12.79
2023-05-25T03:13:51.790Z,12.81
2023-05-25T03:16:20.907Z,12.87
2023-05-25T03:18:48.927Z,12.87
2023-05-25T03:21:16.548Z,12.74
2023-05-25T03:23:44.512Z,12.79
2023-05-25T03:26:11.648Z,12.89
2023-05-25T03:28:39.860Z,12.89
2023-05-25T03:31:07.554Z,12.81
2023-05-25T03:33:34.809Z,12.84
2023-05-25T03:36:02.165Z,12.93
2023-05-25T03:38:29.263Z,13.05
2023-05-25T03:40:56.368Z,13.13
2023-05-25T03:43:23.383Z,13.30
2023-05-25T03:45:50.547Z,13.36
2023-05-25T03:48:17.627Z,13.38
2023-05-25T03:50:44.718Z,13.53
2023-05-25T03:53:11.732Z,13.63
2023-05-25T03:55:39.317Z,13.84
2023-05-25T03:58:06.397Z,14.06
2023-05-25T04:00:33.453Z,14.37
2023-05-25T04:03:00.614Z,14.61
2023-05-25T04:05:27.859Z,14.93
2023-05-25T04:07:57.727Z,15.15
2023-05-25T04:10:24.738Z,15.42
2023-05-25T04:12:52.076Z,15.62
2023-05-25T04:15:21.431Z,15.86
2023-05-25T04:18:03.185Z,16.03
2023-05-25T04:20:30.805Z,16.24
2023-05-25T04:22:57.834Z,16.49
2023-05-25T04:25:28.632Z,16.67
2023-05-25T04:27:56.914Z,16.87
2023-05-25T04:30:57.311Z,16.97
2023-05-25T04:33:47.585Z,17.33
2023-05-25T04:36:18.642Z,17.61
2023-05-25T04:38:48.069Z,17.71
2023-05-25T04:41:15.928Z,17.92
2023-05-25T04:44:04.573Z,18.01
2023-05-25T04:46:37.617Z,18.21
2023-05-25T04:49:05.972Z,18.21
2023-05-25T04:51:33.138Z,18.36
2023-05-25T04:54:00.366Z,18.46
2023-05-25T04:56:28.206Z,18.68
2023-05-25T04:58:55.272Z,18.80
2023-05-25T05:01:22.496Z,18.78
2023-05-25T05:03:50.074Z,18.93
2023-05-25T05:06:18.138Z,19.04
2023-05-25T05:08:45.845Z,19.30
2023-05-25T05:11:13.023Z,19.44
2023-05-25T05:13:40.166Z,19.48
2023-05-25T05:16:08.326Z,19.62
2023-05-25T05:18:35.438Z,19.67
2023-05-25T05:21:02.507Z,19.84
2023-05-25T05:23:29.759Z,19.91
2023-05-25T05:25:56.933Z,19.87
2023-05-25T05:28:27.489Z,19.92
2023-05-25T05:30:54.815Z,19.91
2023-05-25T05:33:24.315Z,19.81
2023-05-25T05:35:52.523Z,19.85
2023-05-25T05:38:21.826Z,19.93
2023-05-25T05:40:48.942Z,20.21
2023-05-25T05:43:20.984Z,20.25
2023-05-25T05:45:48.068Z,20.18
2023-05-25T05:48:15.528Z,19.80
2023-05-25T05:50:42.920Z,19.72
2023-05-25T05:53:11.608Z,19.87
2023-05-25T05:55:38.701Z,19.91
2023-05-25T05:58:05.821Z,20.34
2023-05-25T06:00:32.816Z,19.93
2023-05-25T06:03:01.016Z,20.42
2023-05-25T06:05:30.232Z,20.35
2023-05-25T06:07:58.349Z,20.66
2023-05-25T06:10:25.395Z,21.14
2023-05-25T06:12:52.914Z,20.58
2023-05-25T06:15:20.271Z,20.51
2023-05-25T06:17:49.946Z,20.70
2023-05-25T06:20:17.929Z,20.92
2023-05-25T06:22:46.232Z,20.88
2023-05-25T06:25:14.074Z,20.76
2023-05-25T06:27:41.139Z,20.86
2023-05-25T06:30:08.725Z,20.80
2023-05-25T06:32:36.917Z,20.83
2023-05-25T06:35:05.177Z,20.73
2023-05-25T06:37:38.168Z,21.01
2023-05-25T06:40:10.534Z,21.02
2023-05-25T06:42:38.109Z,21.05
2023-05-25T06:45:06.671Z,21.41
2023-05-25T06:47:34.022Z,21.05
2023-05-25T06:50:01.789Z,21.45
2023-05-25T06:52:28.955Z,21.26
2023-05-25T06:54:56.976Z,21.25
2023-05-25T06:57:24.539Z,21.14
2023-05-25T06:59:51.626Z,21.14
2023-05-25T07:02:20.643Z,21.38
2023-05-25T07:04:47.957Z,21.36
2023-05-25T07:07:15.146Z,21.93
2023-05-25T07:09:42.282Z,21.96
2023-05-25T07:12:11.195Z,22.28
2023-05-25T07:14:38.564Z,22.37
2023-05-25T07:17:05.905Z,22.82
2023-05-25T07:19:33.011Z,22.86
2023-05-25T07:22:00.063Z,22.58
2023-05-25T07:24:27.028Z,22.31
2023-05-25T07:26:54.252Z,22.17
2023-05-25T07:29:21.337Z,21.71
2023-05-25T07:31:48.562Z,21.62
2023-05-25T07:34:15.722Z,22.05
2023-05-25T07:36:42.753Z,21.88
2023-05-25T07:39:11.418Z,21.91
2023-05-25T07:41:39.252Z,22.03
2023-05-25T07:44:06.363Z,21.94
2023-05-25T07:46:33.418Z,22.54
2023-05-25T07:49:00.661Z,22.66
2023-05-25T07:51:30.345Z,22.33
2023-05-25T07:53:58.514Z,22.63
2023-05-25T07:56:26.721Z,22.77
2023-05-25T07:58:53.850Z,22.65
2023-05-25T08:01:21.467Z,22.78
2023-05-25T08:03:50.161Z,22.76
2023-05-25T08:06:17.622Z,22.62
2023-05-25T08:08:45.249Z,22.73
2023-05-25T08:11:12.636Z,22.82
2023-05-25T08:13:39.744Z,22.93
2023-05-25T08:16:06.916Z,22.29
2023-05-25T08:18:33.956Z,22.11
2023-05-25T08:21:01.610Z,22.30
2023-05-25T08:23:28.642Z,22.02
2023-05-25T08:25:55.799Z,22.40
2023-05-25T08:28:22.965Z,22.62
2023-05-25T08:30:50.237Z,22.79
2023-05-25T08:33:17.980Z,23.39
2023-05-25T08:35:45.373Z,23.67
2023-05-25T08:38:12.705Z,23.62
2023-05-25T08:40:42.434Z,23.60
2023-05-25T08:43:09.471Z,22.61
2023-05-25T08:45:39.449Z,22.56
2023-05-25T08:48:12.474Z,22.13
2023-05-25T08:50:41.447Z,22.27
2023-05-25T08:53:12.075Z,22.32
2023-05-25T08:55:43.633Z,21.71
2023-05-25T08:58:17.623Z,21.59
2023-05-25T09:00:55.250Z,21.81
2023-05-25T09:03:23.236Z,21.92
2023-05-25T09:05:51.299Z,21.89
2023-05-25T09:08:20.007Z,21.18
2023-05-25T09:10:47.306Z,20.26
2023-05-25T09:13:21.771Z,19.29
2023-05-25T09:15:50.783Z,19.76
2023-05-25T09:18:17.996Z,18.61
2023-05-25T09:20:46.985Z,18.92
2023-05-25T09:23:15.548Z,19.35
2023-05-25T09:25:44.150Z,19.30
2023-05-25T09:30:41.823Z,19.32
2023-05-25T09:33:19.116Z,18.41
2023-05-25T09:35:46.770Z,18.14
2023-05-25T09:38:16.349Z,18.27
2023-05-25T09:40:44.056Z,17.76
2023-05-25T09:43:17.254Z,17.12
2023-05-25T10:17:24.720Z,16.47
2023-05-25T10:19:59.855Z,16.37
2023-05-25T10:22:33.994Z,16.59
2023-05-25T10:25:15.342Z,16.70
2023-05-25T10:27:47.873Z,17.00
2023-05-25T10:30:16.548Z,17.14
2023-05-25T10:32:45.502Z,17.20
2023-05-25T10:35:14.238Z,17.20
2023-05-25T10:37:42.403Z,17.31
2023-05-25T10:40:10.473Z,17.26
2023-05-25T10:42:38.260Z,17.15
2023-05-25T10:45:07.683Z,17.13
2023-05-25T10:47:42.211Z,17.14
2023-05-25T10:50:34.846Z,17.20
2023-05-25T10:53:12.786Z,17.22
2023-05-25T10:55:52.051Z,17.15
2023-05-25T10:58:21.095Z,17.14
2023-05-25T11:01:12.622Z,17.28
2023-05-25T11:04:17.291Z,17.37
2023-05-25T11:06:47.025Z,17.48
2023-05-25T11:09:27.879Z,17.51
2023-05-25T11:11:59.835Z,17.41
2023-05-25T11:14:27.975Z,17.54
2023-05-25T11:17:14.498Z,17.67
2023-05-25T11:19:52.228Z,17.61
2023-05-25T11:22:23.160Z,17.59
2023-05-25T11:24:52.242Z,17.45
2023-05-25T11:27:28.100Z,17.58
2023-05-25T11:29:58.886Z,17.44
2023-05-25T11:32:27.082Z,17.32
2023-05-25T11:34:55.215Z,17.32
2023-05-25T11:37:25.003Z,17.31
2023-05-25T11:39:53.416Z,17.36
2023-05-25T11:42:23.126Z,17.27
2023-05-25T11:44:50.504Z,17.24
2023-05-25T11:47:23.348Z,17.23
2023-05-25T11:49:50.970Z,17.18
2023-05-25T11:52:20.435Z,17.25
2023-05-25T11:54:47.584Z,17.39
2023-05-25T11:57:19.782Z,17.31
2023-05-25T11:59:51.698Z,17.14
2023-05-25T12:02:19.559Z,17.22
2023-05-25T12:04:57.881Z,17.34
2023-05-25T12:07:26.579Z,17.46
2023-05-25T12:10:06.004Z,17.41
2023-05-25T12:12:47.760Z,17.52
2023-05-25T12:15:22.050Z,17.75
2023-05-25T12:17:50.834Z,17.84
2023-05-25T12:20:18.637Z,17.97
2023-05-25T12:22:46.885Z,17.95
2023-05-25T12:25:16.131Z,18.31
2023-05-25T12:27:44.082Z,18.50
2023-05-25T12:30:12.010Z,18.99
2023-05-25T12:32:55.689Z,19.40
2023-05-25T12:35:23.080Z,19.33
2023-05-25T12:37:50.123Z,19.36
2023-05-25T12:40:21.504Z,19.53
2023-05-25T12:42:57.339Z,19.18
2023-05-25T12:45:24.866Z,18.61
2023-05-25T12:47:52.013Z,18.14
2023-05-25T12:50:19.709Z,18.03
2023-05-25T12:52:48.050Z,17.82
2023-05-25T12:55:28.800Z,17.61
2023-05-25T12:58:04.890Z,17.25
2023-05-25T13:00:34.773Z,17.08
2023-05-25T13:03:02.745Z,16.99
2023-05-25T13:05:33.044Z,17.02
2023-05-25T13:08:00.235Z,16.86
2023-05-25T13:10:29.199Z,16.76
2023-05-25T13:12:58.580Z,16.67
2023-05-25T13:15:27.102Z,16.78
2023-05-25T13:17:56.594Z,16.70
2023-05-25T13:20:27.733Z,16.71
2023-05-25T13:22:57.510Z,16.55
2023-05-25T13:25:27.608Z,16.51
2023-05-25T13:27:57.018Z,16.55
2023-05-25T13:30:24.089Z,16.50
2023-05-25T13:32:52.848Z,16.40
2023-05-25T13:35:37.333Z,16.46
2023-05-25T13:38:04.724Z,16.58
2023-05-25T13:40:31.851Z,16.61
2023-05-25T13:42:58.894Z,16.62
2023-05-25T13:45:25.894Z,16.62
2023-05-25T13:47:53.168Z,16.62
2023-05-25T13:50:20.375Z,16.66
2023-05-25T13:52:47.528Z,16.65
2023-05-25T13:55:14.638Z,16.54
2023-05-25T13:57:41.628Z,16.57
2023-05-25T14:00:09.580Z,16.59
2023-05-25T14:02:37.468Z,16.63
2023-05-25T14:05:05.227Z,16.58
2023-05-25T14:07:32.956Z,16.61
2023-05-25T14:10:00.395Z,16.70
2023-05-25T14:12:27.906Z,16.71
2023-05-25T14:14:55.017Z,16.72
2023-05-25T14:17:22.024Z,16.68
2023-05-25T14:19:49.083Z,16.76
2023-05-25T14:22:16.088Z,16.91
2023-05-25T14:24:43.110Z,17.46
2023-05-25T14:27:10.194Z,17.64
2023-05-25T14:29:37.325Z,18.14
2023-05-25T14:32:04.744Z,18.33
2023-05-25T14:34:31.859Z,18.52
2023-05-25T14:36:58.896Z,18.56
2023-05-25T14:39:26.728Z,18.84
2023-05-25T14:41:53.793Z,18.87
2023-05-25T14:44:20.980Z,18.54
2023-05-25T14:46:48.094Z,18.71
2023-05-25T14:49:16.904Z,18.49
2023-05-25T14:51:43.923Z,18.88
2023-05-25T14:54:13.806Z,18.39
2023-05-25T14:56:40.892Z,18.91
2023-05-25T14:59:08.052Z,19.16
2023-05-25T15:01:35.570Z,19.32
2023-05-25T15:04:03.437Z,19.55
2023-05-25T15:06:32.102Z,19.50
2023-05-25T15:08:59.087Z,19.50
2023-05-25T15:11:26.994Z,19.36
2023-05-25T15:13:54.341Z,19.25
2023-05-25T15:16:21.458Z,18.93
2023-05-25T15:18:48.644Z,19.07
2023-05-25T15:21:15.623Z,19.10
2023-05-25T15:23:42.633Z,18.96
2023-05-25T15:26:11.747Z,18.95
2023-05-25T15:28:38.777Z,18.78
2023-05-25T15:31:05.954Z,18.85
2023-05-25T15:33:48.478Z,18.91
2023-05-25T15:36:19.211Z,19.00
2023-05-25T15:38:49.380Z,19.09
2023-05-25T15:41:17.514Z,18.88
2023-05-25T15:43:54.681Z,18.94
2023-05-25T15:46:21.982Z,18.86
2023-05-25T15:48:49.086Z,18.90
2023-05-25T15:51:16.183Z,18.90
2023-05-25T15:53:43.273Z,18.74
2023-05-25T15:56:10.532Z,18.67
2023-05-25T15:58:37.594Z,18.59
2023-05-25T16:01:05.142Z,18.56
2023-05-25T16:03:32.366Z,18.47
2023-05-25T16:05:59.512Z,18.34
2023-05-25T16:08:26.562Z,18.33
2023-05-25T16:10:53.630Z,18.42
2023-05-25T16:13:20.852Z,18.39
2023-05-25T16:15:48.030Z,18.36
2023-05-25T16:18:16.808Z,18.31
2023-05-25T16:20:44.274Z,18.31
2023-05-25T16:23:11.688Z,18.33
2023-05-25T16:25:38.731Z,18.34
2023-05-25T16:28:05.775Z,18.30
2023-05-25T16:30:32.947Z,18.27
2023-05-25T16:33:00.081Z,18.26
2023-05-25T16:35:27.120Z,18.23
2023-05-25T16:37:54.123Z,18.19
2023-05-25T16:40:21.239Z,18.11
2023-05-25T16:42:48.463Z,17.95
2023-05-25T16:45:15.529Z,17.90
2023-05-25T16:47:42.654Z,17.85
2023-05-25T16:50:10.290Z,17.79
2023-05-25T16:52:37.345Z,17.64
2023-05-25T16:55:04.828Z,17.50
2023-05-25T16:57:31.834Z,17.44
2023-05-25T16:59:58.837Z,17.40
2023-05-25T17:02:26.349Z,17.37
2023-05-25T17:07:21.030Z,17.13
2023-05-25T17:09:47.999Z,17.16
2023-05-25T17:12:15.116Z,17.15
2023-05-25T17:14:42.112Z,17.14
2023-05-25T17:17:09.150Z,17.05
2023-05-25T17:19:36.245Z,16.96
2023-05-25T17:22:03.237Z,16.98
2023-05-25T17:24:30.355Z,16.96
2023-05-25T17:26:57.420Z,16.86
2023-05-25T17:29:24.450Z,16.81
2023-05-25T17:31:51.581Z,16.80
2023-05-25T17:34:18.723Z,16.73
2023-05-25T17:36:45.856Z,16.69
2023-05-25T17:39:12.950Z,16.71
2023-05-25T17:41:40.058Z,16.61
2023-05-25T17:44:07.115Z,16.54
2023-05-25T17:46:34.173Z,16.58
2023-05-25T17:49:01.267Z,16.64
2023-05-25T17:51:28.273Z,16.58
2023-05-25T17:53:55.271Z,16.42
2023-05-25T17:56:22.367Z,16.36
2023-05-25T17:58:49.476Z,16.23
2023-05-25T18:01:17.168Z,15.97
2023-05-25T18:03:44.482Z,15.72
2023-05-25T18:06:11.660Z,15.49
2023-05-25T18:08:38.773Z,15.49
2023-05-25T18:11:05.965Z,15.52
2023-05-25T18:13:33.093Z,15.48
2023-05-25T18:16:00.184Z,15.17
2023-05-25T18:18:27.510Z,14.98
2023-05-25T18:20:54.501Z,14.94
2023-05-25T18:23:22.515Z,14.93
2023-05-25T18:25:49.607Z,14.85
2023-05-25T18:28:16.656Z,14.75
2023-05-25T18:30:43.812Z,14.72
2023-05-25T18:33:11.150Z,14.72
2023-05-25T18:35:38.634Z,14.71
2023-05-25T18:38:06.889Z,14.82
2023-05-25T18:40:34.064Z,14.78
2023-05-25T18:43:01.189Z,14.84
2023-05-25T18:45:28.204Z,14.78
2023-05-25T18:47:55.249Z,14.71
2023-05-25T18:50:22.341Z,14.62
2023-05-25T18:52:51.621Z,14.49
2023-05-25T18:55:19.349Z,14.43
2023-05-25T18:57:46.965Z,14.35
2023-05-25T19:00:14.958Z,14.29
2023-05-25T19:02:42.212Z,13.95
2023-05-25T19:05:11.866Z,13.83
2023-05-25T19:07:58.344Z,13.85
2023-05-25T19:10:26.665Z,13.88
2023-05-25T19:12:53.707Z,13.89
2023-05-25T19:15:20.826Z,13.81
2023-05-25T19:17:48.073Z,13.79
2023-05-25T19:20:15.514Z,13.87
2023-05-25T19:22:42.732Z,13.93
2023-05-25T19:25:09.976Z,13.94
2023-05-25T19:27:37.129Z,13.91
2023-05-25T19:30:04.557Z,13.72
2023-05-25T19:32:31.666Z,13.79
2023-05-25T19:34:58.752Z,13.83
2023-05-25T19:37:26.528Z,13.84
2023-05-25T19:39:53.773Z,13.77
2023-05-25T19:42:20.985Z,14.01
2023-05-25T19:44:48.174Z,14.30
2023-05-25T19:47:15.249Z,14.28
2023-05-25T19:49:42.917Z,14.44
2023-05-25T19:52:10.029Z,14.44
2023-05-25T19:54:37.080Z,14.30
2023-05-25T19:57:04.229Z,14.07
2023-05-25T19:59:31.653Z,13.92
2023-05-25T20:01:58.861Z,13.90
2023-05-25T20:04:26.355Z,14.09
2023-05-25T20:06:54.111Z,14.14
2023-05-25T20:09:29.992Z,14.18
2023-05-25T20:12:00.944Z,14.22
2023-05-25T20:14:27.952Z,14.17
2023-05-25T20:16:56.025Z,14.11
2023-05-25T20:19:23.476Z,14.12
2023-05-25T20:21:50.903Z,14.17
2023-05-25T20:24:18.255Z,14.16
2023-05-25T20:26:45.547Z,14.13
2023-05-25T20:29:12.672Z,14.17
2023-05-25T20:31:40.572Z,14.20
2023-05-25T20:34:07.686Z,14.21
2023-05-25T20:36:34.672Z,14.28
2023-05-25T20:39:03.287Z,14.29
2023-05-25T20:41:30.550Z,14.36
2023-05-25T20:43:58.073Z,14.38
2023-05-25T20:46:25.258Z,14.39
2023-05-25T20:48:53.608Z,14.35
2023-05-25T20:51:21.972Z,14.33
2023-05-25T20:53:49.049Z,14.42
2023-05-25T20:56:16.248Z,14.47
2023-05-25T20:58:43.423Z,14.43
2023-05-25T21:01:10.704Z,14.42
2023-05-25T21:03:37.914Z,14.49
2023-05-25T21:06:05.079Z,14.53
2023-05-25T21:08:33.560Z,14.49
2023-05-25T21:11:01.044Z,14.48
2023-05-25T21:13:28.064Z,14.44
2023-05-25T21:15:55.394Z,14.35
2023-05-25T21:18:22.497Z,14.34
2023-05-25T21:20:49.619Z,14.30
2023-05-25T21:23:16.928Z,14.27
2023-05-25T21:25:44.305Z,14.22
2023-05-25T21:28:11.532Z,14.22
2023-05-25T21:30:38.574Z,14.26
2023-05-25T21:33:05.819Z,14.22
2023-05-25T21:35:32.855Z,14.20
2023-05-25T21:37:59.905Z,14.19
2023-05-25T21:40:26.976Z,14.22
2023-05-25T21:42:54.413Z,14.24
2023-05-25T21:45:21.912Z,14.17
2023-05-25T21:47:49.026Z,14.12
2023-05-25T21:50:16.349Z,14.03
2023-05-25T21:52:43.596Z,13.93
2023-05-25T21:55:10.864Z,13.84
2023-05-25T21:57:37.933Z,13.77
2023-05-25T22:00:06.705Z,13.73
2023-05-25T22:02:39.790Z,13.81
2023-05-25T22:05:07.339Z,13.80
2023-05-25T22:07:34.334Z,13.78
2023-05-25T22:10:01.437Z,13.78
2023-05-25T22:12:28.453Z,13.74
2023-05-25T22:14:55.672Z,13.73
2023-05-25T22:17:22.752Z,13.70
2023-05-25T22:20:03.249Z,13.73
2023-05-25T22:22:34.206Z,13.65
2023-05-25T22:25:01.420Z,13.64
2023-05-25T22:27:28.519Z,13.57
2023-05-25T22:29:55.770Z,13.57
2023-05-25T22:32:23.290Z,13.58
2023-05-25T22:34:50.452Z,13.61
2023-05-25T22:37:17.611Z,13.60
2023-05-25T22:39:45.010Z,13.61
2023-05-25T22:42:12.087Z,13.62
2023-05-25T22:44:39.321Z,13.60
2023-05-25T22:47:06.581Z,13.59
2023-05-25T22:49:42.643Z,13.54
2023-05-25T22:52:11.470Z,13.52
2023-05-25T22:54:38.502Z,13.51
2023-05-25T22:57:06.005Z,13.50
2023-05-25T22:59:33.082Z,13.54
2023-05-25T23:02:00.293Z,13.56
2023-05-25T23:04:27.528Z,13.67
2023-05-25T23:06:54.632Z,13.61
2023-05-25T23:09:21.658Z,13.58
2023-05-25T23:11:48.678Z,13.57
2023-05-25T23:14:15.707Z,13.55
2023-05-25T23:16:42.845Z,13.59
2023-05-25T23:19:09.956Z,13.60
2023-05-25T23:21:37.123Z,13.57
2023-05-25T23:24:04.394Z,13.55
2023-05-25T23:26:31.605Z,13.59
2023-05-25T23:28:58.783Z,13.53
2023-05-25T23:31:25.946Z,13.53
2023-05-25T23:33:53.059Z,13.52
2023-05-25T23:36:20.999Z,13.57
2023-05-25T23:38:47.997Z,13.56
2023-05-25T23:41:16.614Z,13.56
2023-05-25T23:43:43.672Z,13.50
2023-05-25T23:46:10.820Z,13.40
2023-05-25T23:48:37.854Z,13.49
2023-05-25T23:51:07.572Z,13.45
2023-05-25T23:53:34.662Z,13.44
2023-05-25T23:56:01.646Z,13.38
2023-05-25T23:58:28.788Z,13.38
